createdAt,value
2022-11-24T09:25:06.079Z,98290.88
2022-11-24T09:27:51.128Z,98281.50
2022-11-24T09:30:36.107Z,98281.34
2022-11-24T09:33:21.022Z,98294.41
2022-11-24T09:36:06.049Z,98274.91
2022-11-24T09:38:51.313Z,98278.81
2022-11-24T09:41:45.375Z,98275.84
2022-11-24T09:44:51.929Z,98280.16
2022-11-24T09:47:36.470Z,98275.31
2022-11-24T09:50:25.007Z,98272.19
2022-11-24T09:53:09.675Z,98272.47
2022-11-24T09:56:12.610Z,98277.56
2022-11-24T09:59:02.356Z,98279.91
2022-11-24T10:01:48.482Z,98272.09
2022-11-24T10:04:41.411Z,98278.72
2022-11-24T10:07:28.734Z,98268.97
2022-11-24T10:10:25.042Z,98277.16
2022-11-24T10:13:34.128Z,98290.25
2022-11-24T10:16:28.167Z,98287.31
2022-11-24T10:19:36.901Z,98297.09
2022-11-24T10:22:27.733Z,98283.81
2022-11-24T10:25:13.115Z,98286.56
2022-11-24T10:28:02.959Z,98288.31
2022-11-24T10:30:49.211Z,98285.78
2022-11-24T10:33:35.278Z,98287.75
2022-11-24T10:36:46.410Z,98285.38
2022-11-24T10:39:59.683Z,98288.13
2022-11-24T10:42:48.134Z,98284.59
2022-11-24T10:45:33.000Z,98281.88
2022-11-24T10:48:25.280Z,98289.31
2022-11-24T10:51:40.189Z,98287.16
2022-11-24T10:54:24.939Z,98284.63
2022-11-24T10:57:26.911Z,98292.63
2022-11-24T11:00:17.764Z,98297.50
2022-11-24T11:03:21.182Z,98291.44
2022-11-24T11:06:12.921Z,98283.06
2022-11-24T11:09:06.658Z,98286.16
2022-11-24T11:11:53.240Z,98289.09
2022-11-24T11:14:38.274Z,98288.31
2022-11-24T11:17:29.312Z,98297.31
2022-11-24T11:20:21.892Z,98300.06
2022-11-24T11:23:42.247Z,98307.09
2022-11-24T11:26:36.714Z,98303.19
2022-11-24T11:35:33.149Z,98305.91
2022-11-24T11:38:18.130Z,98306.50
2022-11-24T11:41:05.103Z,98300.63
2022-11-24T11:44:00.178Z,98301.03
2022-11-24T11:46:46.064Z,98301.81
2022-11-24T11:49:30.871Z,98306.13
2022-11-24T11:52:37.654Z,98303.97
2022-11-24T11:55:58.215Z,98310.41
2022-11-24T11:58:51.831Z,98306.69
2022-11-24T12:01:58.674Z,98304.75
2022-11-24T12:04:56.050Z,98300.84
2022-11-24T12:07:53.598Z,98307.88
2022-11-24T12:11:04.696Z,98315.88
2022-11-24T12:14:11.115Z,98312.56
2022-11-24T12:16:58.966Z,98318.00
2022-11-24T12:20:07.285Z,98320.31
2022-11-24T12:22:56.996Z,98323.28
2022-11-24T12:25:50.262Z,98324.81
2022-11-24T12:29:05.330Z,98319.91
2022-11-24T12:31:53.046Z,98322.09
2022-11-24T12:34:37.858Z,98331.44
2022-11-24T12:37:32.488Z,98328.53
2022-11-24T12:40:31.943Z,98336.72
2022-11-24T12:43:36.183Z,98339.84
2022-11-24T12:46:49.077Z,98338.09
2022-11-24T12:49:49.358Z,98342.00
2022-11-24T12:52:43.324Z,98343.78
2022-11-24T12:55:31.757Z,98344.16
2022-11-24T12:58:39.537Z,98342.94
2022-11-24T13:01:24.193Z,98345.88
2022-11-24T13:04:41.522Z,98356.22
2022-11-24T13:07:57.462Z,98357.59
2022-11-24T13:10:58.219Z,98350.53
2022-11-24T13:13:56.532Z,98352.47
2022-11-24T13:17:28.197Z,98360.66
2022-11-24T13:20:25.579Z,98360.03
2022-11-24T13:23:28.665Z,98369.00
2022-11-24T13:26:27.178Z,98363.88
2022-11-24T13:29:25.490Z,98364.22
2022-11-24T13:32:19.412Z,98367.31
2022-11-24T13:35:13.876Z,98361.84
2022-11-24T13:37:59.008Z,98358.72
2022-11-24T13:40:59.709Z,98360.47
2022-11-24T13:44:14.304Z,98365.91
2022-11-24T13:47:06.907Z,98360.25
2022-11-24T13:49:51.487Z,98373.09
2022-11-24T13:52:39.794Z,98372.69
2022-11-24T13:55:29.238Z,98368.16
2022-11-24T13:58:14.056Z,98374.59
2022-11-24T14:01:05.207Z,98379.25
2022-11-24T14:04:29.952Z,98374.53
2022-11-24T14:07:09.154Z,98379.00
2022-11-24T14:10:18.461Z,98374.31
2022-11-24T14:13:20.552Z,98375.28
2022-11-24T14:16:14.271Z,98378.63
2022-11-24T14:19:09.474Z,98379.75
2022-11-24T14:21:54.714Z,98378.19
2022-11-24T14:24:41.595Z,98381.28
2022-11-24T14:27:36.676Z,98379.69
2022-11-24T14:30:24.303Z,98378.91
2022-11-24T14:33:11.523Z,98385.56
2022-11-24T14:35:56.422Z,98387.50
2022-11-24T14:38:42.010Z,98385.94
2022-11-24T14:41:27.730Z,98392.75
2022-11-24T14:44:41.576Z,98392.75
2022-11-24T14:47:30.951Z,98401.94
2022-11-24T14:50:21.418Z,98408.75
2022-11-24T14:53:13.170Z,98411.88
2022-11-24T14:56:24.855Z,98409.69
2022-11-24T14:59:22.590Z,98411.47
2022-11-24T15:02:25.880Z,98417.94
2022-11-24T15:05:11.119Z,98422.00
2022-11-24T15:08:02.126Z,98423.59
2022-11-24T15:10:47.119Z,98424.75
2022-11-24T15:13:37.689Z,98423.97
2022-11-24T15:16:25.473Z,98420.63
2022-11-24T15:19:15.784Z,98421.63
2022-11-24T15:22:00.831Z,98429.22
2022-11-24T15:24:52.957Z,98432.72
2022-11-24T15:27:38.152Z,98440.47
2022-11-24T15:30:22.897Z,98437.00
2022-11-24T15:33:16.247Z,98441.28
2022-11-24T15:36:01.172Z,98441.28
2022-11-24T15:38:45.997Z,98450.47
2022-11-24T15:41:33.218Z,98446.34
2022-11-24T15:44:18.039Z,98455.53
2022-11-24T15:47:03.087Z,98462.19
2022-11-24T15:49:47.596Z,98459.81
2022-11-24T15:52:31.922Z,98467.41
2022-11-24T15:55:19.226Z,98469.16
2022-11-24T15:58:03.687Z,98464.09
2022-11-24T16:00:50.206Z,98462.69
2022-11-24T16:03:50.153Z,98457.03
2022-11-24T16:06:38.559Z,98463.84
2022-11-24T16:09:23.431Z,98466.59
2022-11-24T16:12:09.026Z,98464.84
2022-11-24T16:14:54.154Z,98471.28
2022-11-24T16:17:38.777Z,98477.13
2022-11-24T16:20:23.749Z,98479.06
2022-11-24T16:23:08.494Z,98481.00
2022-11-24T16:25:53.044Z,98480.22
2022-11-24T16:28:37.896Z,98481.94
2022-11-24T16:31:23.543Z,98483.53
2022-11-24T16:34:08.330Z,98480.56
2022-11-24T16:36:53.243Z,98490.34
2022-11-24T16:39:37.859Z,98486.25
2022-11-24T16:42:22.149Z,98487.22
2022-11-24T16:45:10.305Z,98489.75
2022-11-24T16:47:55.158Z,98496.41
2022-11-24T16:50:39.607Z,98490.53
2022-11-24T16:53:24.241Z,98495.59
2022-11-24T16:56:09.722Z,98495.59
2022-11-24T16:58:55.256Z,98490.69
2022-11-24T17:01:40.548Z,98488.97
2022-11-24T17:04:25.293Z,98496.75
2022-11-24T17:07:10.247Z,98497.72
2022-11-24T17:09:55.317Z,98505.16
2022-11-24T17:12:40.321Z,98500.84
2022-11-24T17:15:33.517Z,98497.53
2022-11-24T17:18:25.203Z,98496.75
2022-11-24T17:21:16.358Z,98504.16
2022-11-24T17:24:08.150Z,98506.69
2022-11-24T17:26:53.060Z,98510.22
2022-11-24T17:29:37.596Z,98513.50
2022-11-24T17:32:22.316Z,98515.44
2022-11-24T17:35:07.817Z,98518.78
2022-11-24T17:37:52.571Z,98519.72
2022-11-24T17:40:37.625Z,98519.72
2022-11-24T17:43:22.367Z,98519.56
2022-11-24T17:46:07.533Z,98523.06
2022-11-24T17:48:52.774Z,98523.84
2022-11-24T17:51:37.459Z,98524.00
2022-11-24T17:54:46.021Z,98525.94
2022-11-24T17:57:26.883Z,98522.47
2022-11-24T18:00:11.993Z,98527.69
2022-11-24T18:03:00.665Z,98524.56
2022-11-24T18:05:45.142Z,98530.59
2022-11-24T18:08:32.285Z,98523.75
2022-11-24T18:11:21.899Z,98529.63
2022-11-24T18:14:09.840Z,98526.28
2022-11-24T18:16:54.763Z,98523.75
2022-11-24T18:19:39.833Z,98523.00
2022-11-24T18:22:50.072Z,98529.03
2022-11-24T18:25:29.028Z,98532.34
2022-11-24T18:28:13.528Z,98531.19
2022-11-24T18:31:06.252Z,98538.97
2022-11-24T18:33:51.032Z,98543.28
2022-11-24T18:36:36.071Z,98541.69
2022-11-24T18:39:20.585Z,98549.09
2022-11-24T18:42:05.761Z,98548.69
2022-11-24T18:44:54.027Z,98545.97
2022-11-24T18:47:39.526Z,98550.09
2022-11-24T18:50:24.251Z,98558.47
2022-11-24T18:53:09.028Z,98560.22
2022-11-24T18:56:04.252Z,98560.38
2022-11-24T18:58:52.694Z,98558.63
2022-11-24T19:01:37.919Z,98561.97
2022-11-24T19:04:23.461Z,98562.75
2022-11-24T19:07:08.301Z,98564.50
2022-11-24T19:09:52.850Z,98569.13
2022-11-24T19:12:37.743Z,98574.84
2022-11-24T19:15:22.436Z,98585.13
2022-11-24T19:18:07.181Z,98580.84
2022-11-24T19:20:51.963Z,98591.78
2022-11-24T19:23:36.808Z,98593.34
2022-11-24T19:26:21.590Z,98593.72
2022-11-24T19:29:07.853Z,98592.72
2022-11-24T19:31:54.135Z,98586.09
2022-11-24T19:34:39.063Z,98584.53
2022-11-24T19:37:23.836Z,98597.81
2022-11-24T19:40:09.295Z,98598.59
2022-11-24T19:42:53.666Z,98602.06
2022-11-24T19:45:43.451Z,98605.41
2022-11-24T19:48:43.084Z,98604.44
2022-11-24T19:51:33.415Z,98613.78
2022-11-24T19:54:18.262Z,98618.69
2022-11-24T19:57:02.890Z,98625.69
2022-11-24T19:59:48.157Z,98633.13
2022-11-24T20:02:32.869Z,98623.34
2022-11-24T20:05:17.758Z,98629.19
2022-11-24T20:08:02.809Z,98625.88
2022-11-24T20:10:47.572Z,98635.22
2022-11-24T20:13:36.093Z,98631.53
2022-11-24T20:16:27.371Z,98637.75
2022-11-24T20:19:12.834Z,98636.78
2022-11-24T20:21:57.311Z,98640.88
2022-11-24T20:24:41.888Z,98639.34
2022-11-24T20:27:26.636Z,98645.16
2022-11-24T20:30:11.400Z,98644.41
2022-11-24T20:32:56.469Z,98648.69
2022-11-24T20:35:41.196Z,98649.47
2022-11-24T20:38:28.002Z,98650.41
2022-11-24T20:41:34.635Z,98652.94
2022-11-24T20:44:21.421Z,98652.75
2022-11-24T20:47:06.464Z,98647.88
2022-11-24T20:49:51.308Z,98662.75
2022-11-24T20:52:36.117Z,98667.03
2022-11-24T20:55:21.106Z,98656.28
2022-11-24T20:58:05.737Z,98654.69
2022-11-24T21:00:51.631Z,98652.34
2022-11-24T21:03:42.587Z,98660.72
2022-11-24T21:06:29.232Z,98650.94
2022-11-24T21:09:14.685Z,98655.84
2022-11-24T21:11:59.831Z,98654.09
2022-11-24T21:14:44.173Z,98646.28
2022-11-24T21:17:31.603Z,98647.44
2022-11-24T21:20:16.343Z,98654.25
2022-11-24T21:23:02.455Z,98656.63
2022-11-24T21:25:46.894Z,98658.38
2022-11-24T21:28:32.030Z,98653.28
2022-11-24T21:31:19.332Z,98658.97
2022-11-24T21:34:05.110Z,98661.50
2022-11-24T21:36:50.343Z,98668.31
2022-11-24T22:29:36.647Z,98712.03
2022-11-24T22:32:21.290Z,98704.78
2022-11-24T22:35:06.614Z,98705.13
2022-11-24T22:37:51.223Z,98713.16
2022-11-24T22:40:35.876Z,98715.25
2022-11-24T22:43:23.094Z,98720.31
2022-11-24T22:46:19.376Z,98722.84
2022-11-24T22:49:04.058Z,98726.34
2022-11-24T22:51:48.568Z,98729.84
2022-11-24T22:54:33.465Z,98727.31
2022-11-24T22:57:18.630Z,98729.84
2022-11-24T23:00:04.114Z,98726.53
2022-11-24T23:02:48.751Z,98724.78
2022-11-24T23:05:33.371Z,98723.81
2022-11-24T23:08:18.134Z,98732.38
2022-11-24T23:11:05.865Z,98726.72
2022-11-24T23:13:55.330Z,98722.59
2022-11-24T23:16:40.583Z,98727.66
2022-11-24T23:19:25.493Z,98727.03
2022-11-24T23:22:10.174Z,98730.19
2022-11-24T23:24:55.347Z,98728.59
2022-11-24T23:27:39.856Z,98725.13
2022-11-24T23:30:24.629Z,98731.78
2022-11-24T23:33:09.519Z,98731.13
2022-11-24T23:35:53.883Z,98726.59
2022-11-24T23:38:39.136Z,98725.19
2022-11-24T23:41:25.016Z,98730.88
2022-11-24T23:44:09.580Z,98745.28
2022-11-24T23:46:54.116Z,98742.31
2022-11-24T23:49:38.893Z,98753.06
2022-11-24T23:52:23.500Z,98751.94
2022-11-24T23:55:08.557Z,98755.25
2022-11-24T23:57:53.493Z,98752.13
